Observations for BRIZE NORTON RA, United Kingdom (EGVN)

EGVN 240850Z 10002KT 9999 -RA FEW020 BKN150 19/16 Q1015 NOSIG   
EGVN 240850Z 10002KT 9999 -RA FEW020 BKN150 19/16 Q1015 NOSIG RMK BLU BLU
EGVN 240820Z 04004KT CAVOK 18/16 Q1014 NOSIG
EGVN 240820Z 04004KT CAVOK 18/16 Q1014 NOSIG RMK BLU BLU
EGVN 240750Z 02002KT CAVOK 18/15 Q1014 NOSIG RMK BLU BLU
EGVN 240720Z 06003KT CAVOK 18/15 Q1014 NOSIG RMK BLU BLU
EGVN 240650Z 04005KT CAVOK 17/15 Q1014 NOSIG
EGVN 240650Z 04005KT CAVOK 17/15 Q1014 NOSIG RMK BLU BLU
EGVN 240550Z 04006KT 7000 HZ SCT060 SCT160 BKN200 16/15 Q1013 BECMG 9999 NSW
EGVN 240550Z 04006KT 7000 HZ SCT060 SCT160 BKN200 16/15 Q1013 BECMG 9999 NSW RMK WHT BECMG BLU
EGVN 240520Z 04004KT 7000 HZ BKN050 BKN200 16/14 Q1013 NOSIG
EGVN 240520Z 04004KT 7000 HZ BKN050 BKN200 16/14 Q1013 NOSIG RMK WHT WHT
EGVN 240450Z 01004KT 7000 HZ FEW050 BKN200 16/14 Q1013 NOSIG
EGVN 240450Z 01004KT 7000 HZ FEW050 BKN200 16/14 Q1013 NOSIG RMK WHT WHT
EGVN 240421Z 06004KT 7000 HZ FEW070 BKN200 16/14 Q1013 NOSIG
EGVN 240421Z 06004KT 7000 HZ FEW070 BKN200 16/14 Q1013 NOSIG RMK WHT WHT
EGVN 240350Z 04006KT 7000 HZ FEW120 BKN200 15/14 Q1013 NOSIG
EGVN 240350Z 04006KT 7000 HZ FEW120 BKN200 15/14 Q1013 NOSIG RMK WHT WHT
EGVN 240320Z 05004KT 7000 HZ FEW150 BKN220 16/14 Q1013 NOSIG
EGVN 240320Z 05004KT 7000 HZ FEW150 BKN220 16/14 Q1013 NOSIG RMK WHT WHT
EGVN 240250Z 05006KT 7000 HZ FEW150 BKN180 16/14 Q1013 NOSIG
EGVN 240250Z 05006KT 7000 HZ FEW150 BKN180 16/14 Q1013 NOSIG RMK WHT WHT
EGVN 240220Z 05004KT CAVOK 16/14 Q1013 BECMG 7000 HZ
EGVN 240220Z 05004KT CAVOK 16/14 Q1013 BECMG 7000 HZ RMK BLU BECMG WHT
EGVN 240150Z 04003KT CAVOK 16/13 Q1013 NOSIG
EGVN 240150Z 04003KT CAVOK 16/13 Q1013 NOSIG RMK BLU BLU
EGVN 240121Z 06004KT CAVOK 16/13 Q1013 NOSIG
EGVN 240121Z 06004KT CAVOK 16/13 Q1013 NOSIG RMK BLU BLU
EGVN 240050Z 08005KT CAVOK 17/14 Q1014 NOSIG
EGVN 240050Z 08005KT CAVOK 17/14 Q1014 NOSIG RMK BLU BLU
EGVN 240020Z 08007KT CAVOK 18/14 Q1014 NOSIG
EGVN 240020Z 08007KT CAVOK 18/14 Q1014 NOSIG RMK BLU BLU
EGVN 232350Z 07007KT CAVOK 18/14 Q1014 NOSIG
EGVN 232350Z 07007KT CAVOK 18/14 Q1014 NOSIG RMK BLU BLU
EGVN 232320Z 07007KT CAVOK 18/14 Q1014 NOSIG
EGVN 232320Z 07007KT CAVOK 18/14 Q1014 NOSIG RMK BLU BLU
EGVN 232250Z 07008KT CAVOK 18/14 Q1014 NOSIG
EGVN 232250Z 07008KT CAVOK 18/14 Q1014 NOSIG RMK BLU BLU
EGVN 232220Z 06007KT CAVOK 19/14 Q1014 NOSIG
EGVN 232220Z 06007KT CAVOK 19/14 Q1014 NOSIG RMK BLU BLU
EGVN 232150Z 07007KT 9999 FEW047 SCT140 BKN180 19/15 Q1014 NOSIG
EGVN 232150Z 07007KT 9999 FEW047 SCT140 BKN180 19/15 Q1014 NOSIG RMK BLU BLU
EGVN 232120Z 08007KT 9999 FEW048 BKN120 19/15 Q1015 NOSIG   
EGVN 232120Z 08007KT 9999 FEW048 BKN120 19/15 Q1015 NOSIG RMK BLU BLU
EGVN 232050Z 08007KT CAVOK 19/14 Q1014 NOSIG
EGVN 232050Z 08007KT CAVOK 19/14 Q1014 NOSIG RMK BLU BLU
EGVN 232020Z 08008KT CAVOK 20/14 Q1014 NOSIG
EGVN 232020Z 08008KT CAVOK 20/14 Q1014 NOSIG RMK BLU BLU
EGVN 231950Z 10006KT CAVOK 20/15 Q1014 NOSIG RMK BLU BLU
EGVN 231921Z 09009KT CAVOK 20/14 Q1014 NOSIG
EGVN 231921Z 09009KT CAVOK 20/14 Q1014 NOSIG RMK BLU BLU
EGVN 231850Z 09007KT CAVOK 20/15 Q1014 NOSIG RMK BLU BLU
EGVN 231750Z 10009KT 9999 -SHRA FEW035 BKN090 21/15 Q1014 NOSIG 
EGVN 231750Z 10009KT 9999 -SHRA FEW035 BKN090 21/15 Q1014 NOSIG RMK BLU BLU
EGVN 231720Z 09008KT 9999 -SHRA FEW035 SCT070 21/15 Q1014 NOSIG 
EGVN 231720Z 09008KT 9999 -SHRA FEW035 SCT070 21/15 Q1014 NOSIG RMK BLU BLU
EGVN 231650Z 09008KT 9999 FEW035 SCT070 BKN100 21/16 Q1015 NOSIG
EGVN 231650Z 09008KT 9999 FEW035 SCT070 BKN100 21/16 Q1015 NOSIG RMK BLU BLU
EGVN 231620Z 08010KT 9999 -SHRA FEW035 BKN080 22/15 Q1015 TEMPO 7000 SHRA   
EGVN 231620Z 08010KT 9999 -SHRA FEW035 BKN080 22/15 Q1015 TEMPO 7000 SHRA RMK BLU TEMPO WHT
EGVN 231550Z 08008KT 9999 -SHRA FEW030 SCT100 22/15 Q1015 NOSIG 
EGVN 231550Z 08008KT 9999 -SHRA FEW030 SCT100 22/15 Q1015 NOSIG RMK BLU BLU
EGVN 231521Z 08010KT 9999 FEW030 SCT050 BKN110 21/14 Q1015 NOSIG
EGVN 231521Z 08010KT 9999 FEW030 SCT050 BKN110 21/14 Q1015 NOSIG RMK BLU BLU
EGVN 231450Z 09010KT CAVOK 22/14 Q1015 NOSIG
EGVN 231450Z 09010KT CAVOK 22/14 Q1015 NOSIG RMK BLU BLU
EGVN 231350Z 10009KT CAVOK 22/13 Q1015 NOSIG
EGVN 231350Z 10009KT CAVOK 22/13 Q1015 NOSIG RMK BLU BLU
EGVN 231321Z 11009KT CAVOK 23/13 Q1015 NOSIG
EGVN 231321Z 11009KT CAVOK 23/13 Q1015 NOSIG RMK BLU BLU
EGVN 231250Z 10007KT 9999 FEW040 SCT060 23/14 Q1015 NOSIG   
EGVN 231250Z 10007KT 9999 FEW040 SCT060 23/14 Q1015 NOSIG RMK BLU BLU
EGVN 231221Z 11011KT 9999 FEW040 SCT050 24/13 Q1016 NOSIG   
EGVN 231221Z 11011KT 9999 FEW040 SCT050 24/13 Q1016 NOSIG RMK BLU BLU
EGVN 231150Z 09009KT 9999 FEW040 SCT070 22/14 Q1016 NOSIG   
EGVN 231150Z 09009KT 9999 FEW040 SCT070 22/14 Q1016 NOSIG RMK BLU BLU
EGVN 231120Z 09008KT CAVOK 22/15 Q1016 NOSIG
EGVN 231120Z 09008KT CAVOK 22/15 Q1016 NOSIG RMK BLU BLU
EGVN 231050Z 08009KT CAVOK 20/15 Q1017 NOSIG
EGVN 231050Z 08009KT CAVOK 20/15 Q1017 NOSIG RMK BLU BLU
EGVN 231021Z 09005KT CAVOK 19/14 Q1017 NOSIG
EGVN 231021Z 09005KT CAVOK 19/14 Q1017 NOSIG RMK BLU BLU
EGVN 230950Z 08008KT CAVOK 18/14 Q1017 NOSIG RMK BLU BLU
EGVN 230921Z 09008KT CAVOK 17/13 Q1018 NOSIG
EGVN 230921Z 09008KT CAVOK 17/13 Q1018 NOSIG RMK BLU BLU
EGVN 230850Z 09007KT CAVOK 16/13 Q1018 NOSIG
EGVN 230850Z 09007KT CAVOK 16/13 Q1018 NOSIG RMK BLU BLU